sensor_id;sensor_type;location;lat;lon;timestamp;P1;durP1;ratioP1;P2;durP2;ratioP2
75216;SDS011;63800;51.972;5.682;2024-03-29T00:00:12;5.05;;;1.50;;
75216;SDS011;63800;51.972;5.682;2024-03-29T00:02:38;3.72;;;1.42;;
75216;SDS011;63800;51.972;5.682;2024-03-29T00:05:03;4.78;;;1.45;;
75216;SDS011;63800;51.972;5.682;2024-03-29T00:07:29;3.03;;;1.38;;
75216;SDS011;63800;51.972;5.682;2024-03-29T00:09:54;2.47;;;1.05;;
75216;SDS011;63800;51.972;5.682;2024-03-29T00:12:19;3.47;;;1.20;;
75216;SDS011;63800;51.972;5.682;2024-03-29T00:14:45;3.85;;;1.45;;
75216;SDS011;63800;51.972;5.682;2024-03-29T00:17:12;4.75;;;1.45;;
75216;SDS011;63800;51.972;5.682;2024-03-29T00:19:38;3.55;;;1.20;;
75216;SDS011;63800;51.972;5.682;2024-03-29T00:22:03;4.13;;;1.13;;
75216;SDS011;63800;51.972;5.682;2024-03-29T00:24:29;4.60;;;1.45;;
75216;SDS011;63800;51.972;5.682;2024-03-29T00:26:54;3.00;;;1.30;;
75216;SDS011;63800;51.972;5.682;2024-03-29T00:29:20;3.35;;;1.23;;
75216;SDS011;63800;51.972;5.682;2024-03-29T00:31:45;4.97;;;1.30;;
75216;SDS011;63800;51.972;5.682;2024-03-29T00:34:10;4.53;;;1.60;;
75216;SDS011;63800;51.972;5.682;2024-03-29T00:36:36;4.22;;;1.27;;
75216;SDS011;63800;51.972;5.682;2024-03-29T00:39:02;3.92;;;1.05;;
75216;SDS011;63800;51.972;5.682;2024-03-29T00:41:27;1.98;;;1.35;;
75216;SDS011;63800;51.972;5.682;2024-03-29T00:43:53;4.90;;;1.30;;
75216;SDS011;63800;51.972;5.682;2024-03-29T00:46:18;2.55;;;1.10;;
75216;SDS011;63800;51.972;5.682;2024-03-29T00:48:43;5.15;;;1.30;;
75216;SDS011;63800;51.972;5.682;2024-03-29T00:51:11;3.90;;;1.42;;
75216;SDS011;63800;51.972;5.682;2024-03-29T00:53:37;5.82;;;1.15;;
75216;SDS011;63800;51.972;5.682;2024-03-29T00:56:02;4.65;;;1.50;;
75216;SDS011;63800;51.972;5.682;2024-03-29T00:58:28;4.68;;;1.50;;
75216;SDS011;63800;51.972;5.682;2024-03-29T01:00:54;4.60;;;1.20;;
75216;SDS011;63800;51.972;5.682;2024-03-29T01:03:19;2.58;;;1.30;;
75216;SDS011;63800;51.972;5.682;2024-03-29T01:05:45;2.50;;;1.20;;
75216;SDS011;63800;51.972;5.682;2024-03-29T01:08:10;3.25;;;1.30;;
75216;SDS011;63800;51.972;5.682;2024-03-29T01:10:35;2.08;;;1.20;;
75216;SDS011;63800;51.972;5.682;2024-03-29T01:13:01;2.72;;;1.55;;
75216;SDS011;63800;51.972;5.682;2024-03-29T01:15:27;5.25;;;1.30;;
75216;SDS011;63800;51.972;5.682;2024-03-29T01:17:52;4.95;;;1.33;;
75216;SDS011;63800;51.972;5.682;2024-03-29T01:20:18;3.92;;;1.20;;
75216;SDS011;63800;51.972;5.682;2024-03-29T01:22:43;3.22;;;1.20;;
75216;SDS011;63800;51.972;5.682;2024-03-29T01:25:09;2.15;;;1.08;;
75216;SDS011;63800;51.972;5.682;2024-03-29T01:27:36;1.58;;;1.35;;
75216;SDS011;63800;51.972;5.682;2024-03-29T01:30:02;4.25;;;1.50;;
75216;SDS011;63800;51.972;5.682;2024-03-29T01:32:27;2.35;;;1.05;;
75216;SDS011;63800;51.972;5.682;2024-03-29T01:34:53;3.60;;;1.15;;
75216;SDS011;63800;51.972;5.682;2024-03-29T01:37:18;5.10;;;1.10;;
75216;SDS011;63800;51.972;5.682;2024-03-29T01:39:44;3.38;;;1.17;;
75216;SDS011;63800;51.972;5.682;2024-03-29T01:42:09;4.18;;;1.23;;
75216;SDS011;63800;51.972;5.682;2024-03-29T01:44:35;2.40;;;1.20;;
75216;SDS011;63800;51.972;5.682;2024-03-29T01:47:01;2.05;;;1.00;;
75216;SDS011;63800;51.972;5.682;2024-03-29T01:49:27;3.72;;;1.23;;
75216;SDS011;63800;51.972;5.682;2024-03-29T01:51:54;12.13;;;1.95;;
75216;SDS011;63800;51.972;5.682;2024-03-29T01:54:20;3.17;;;1.30;;
75216;SDS011;63800;51.972;5.682;2024-03-29T01:56:46;3.83;;;1.30;;
75216;SDS011;63800;51.972;5.682;2024-03-29T01:59:14;2.15;;;1.10;;
75216;SDS011;63800;51.972;5.682;2024-03-29T02:01:41;1.60;;;1.17;;
75216;SDS011;63800;51.972;5.682;2024-03-29T02:04:07;2.00;;;1.10;;
75216;SDS011;63800;51.972;5.682;2024-03-29T02:06:34;3.42;;;1.23;;
75216;SDS011;63800;51.972;5.682;2024-03-29T02:09:01;3.50;;;1.30;;
75216;SDS011;63800;51.972;5.682;2024-03-29T02:11:26;2.08;;;1.10;;
75216;SDS011;63800;51.972;5.682;2024-03-29T02:13:51;2.35;;;1.27;;
75216;SDS011;63800;51.972;5.682;2024-03-29T02:16:17;2.75;;;1.27;;
75216;SDS011;63800;51.972;5.682;2024-03-29T02:18:43;1.40;;;1.05;;
75216;SDS011;63800;51.972;5.682;2024-03-29T02:21:08;2.72;;;1.20;;
75216;SDS011;63800;51.972;5.682;2024-03-29T02:23:35;3.05;;;1.30;;
75216;SDS011;63800;51.972;5.682;2024-03-29T02:26:02;2.70;;;1.25;;
75216;SDS011;63800;51.972;5.682;2024-03-29T02:28:28;4.20;;;1.30;;
75216;SDS011;63800;51.972;5.682;2024-03-29T02:30:55;2.72;;;1.00;;
75216;SDS011;63800;51.972;5.682;2024-03-29T02:33:21;4.03;;;1.30;;
75216;SDS011;63800;51.972;5.682;2024-03-29T02:35:46;3.20;;;1.60;;
75216;SDS011;63800;51.972;5.682;2024-03-29T02:38:12;3.22;;;1.13;;
75216;SDS011;63800;51.972;5.682;2024-03-29T02:40:37;3.30;;;1.25;;
75216;SDS011;63800;51.972;5.682;2024-03-29T02:43:03;3.85;;;1.40;;
75216;SDS011;63800;51.972;5.682;2024-03-29T02:45:28;1.10;;;0.98;;
75216;SDS011;63800;51.972;5.682;2024-03-29T02:47:54;2.58;;;1.10;;
75216;SDS011;63800;51.972;5.682;2024-03-29T02:50:19;1.85;;;1.10;;
75216;SDS011;63800;51.972;5.682;2024-03-29T02:52:44;5.18;;;1.42;;
75216;SDS011;63800;51.972;5.682;2024-03-29T02:55:10;4.03;;;1.20;;
75216;SDS011;63800;51.972;5.682;2024-03-29T02:57:36;4.38;;;1.27;;
75216;SDS011;63800;51.972;5.682;2024-03-29T03:00:03;1.83;;;1.30;;
75216;SDS011;63800;51.972;5.682;2024-03-29T03:02:30;3.55;;;1.88;;
75216;SDS011;63800;51.972;5.682;2024-03-29T03:04:55;2.10;;;1.02;;
75216;SDS011;63800;51.972;5.682;2024-03-29T03:07:20;2.22;;;1.35;;
75216;SDS011;63800;51.972;5.682;2024-03-29T03:10:04;3.60;;;1.30;;
75216;SDS011;63800;51.972;5.682;2024-03-29T03:12:49;2.53;;;1.23;;
75216;SDS011;63800;51.972;5.682;2024-03-29T03:15:14;2.75;;;1.55;;
75216;SDS011;63800;51.972;5.682;2024-03-29T03:17:40;1.33;;;1.13;;
75216;SDS011;63800;51.972;5.682;2024-03-29T03:20:05;2.75;;;1.10;;
75216;SDS011;63800;51.972;5.682;2024-03-29T03:22:31;4.93;;;1.33;;
75216;SDS011;63800;51.972;5.682;2024-03-29T03:24:57;3.00;;;1.25;;
75216;SDS011;63800;51.972;5.682;2024-03-29T03:27:23;4.25;;;1.00;;
75216;SDS011;63800;51.972;5.682;2024-03-29T03:29:48;1.33;;;1.08;;
75216;SDS011;63800;51.972;5.682;2024-03-29T03:32:14;3.25;;;0.88;;
75216;SDS011;63800;51.972;5.682;2024-03-29T03:34:39;3.17;;;1.63;;
75216;SDS011;63800;51.972;5.682;2024-03-29T03:37:05;2.72;;;1.13;;
75216;SDS011;63800;51.972;5.682;2024-03-29T03:39:30;2.25;;;1.50;;
75216;SDS011;63800;51.972;5.682;2024-03-29T03:41:55;3.53;;;1.15;;
75216;SDS011;63800;51.972;5.682;2024-03-29T03:44:21;3.55;;;1.10;;
75216;SDS011;63800;51.972;5.682;2024-03-29T03:46:49;2.90;;;1.20;;
75216;SDS011;63800;51.972;5.682;2024-03-29T03:49:15;2.78;;;1.05;;
75216;SDS011;63800;51.972;5.682;2024-03-29T03:51:40;4.43;;;1.45;;
75216;SDS011;63800;51.972;5.682;2024-03-29T03:54:06;3.03;;;1.27;;
75216;SDS011;63800;51.972;5.682;2024-03-29T03:56:31;1.73;;;1.10;;
75216;SDS011;63800;51.972;5.682;2024-03-29T03:58:56;2.38;;;1.15;;
75216;SDS011;63800;51.972;5.682;2024-03-29T04:01:23;2.63;;;1.40;;
75216;SDS011;63800;51.972;5.682;2024-03-29T04:03:48;1.23;;;1.10;;
75216;SDS011;63800;51.972;5.682;2024-03-29T04:06:14;1.75;;;0.90;;
75216;SDS011;63800;51.972;5.682;2024-03-29T04:08:39;2.28;;;1.08;;
75216;SDS011;63800;51.972;5.682;2024-03-29T04:11:05;1.30;;;0.90;;
75216;SDS011;63800;51.972;5.682;2024-03-29T04:13:30;3.00;;;1.23;;
75216;SDS011;63800;51.972;5.682;2024-03-29T04:16:02;4.13;;;1.30;;
75216;SDS011;63800;51.972;5.682;2024-03-29T04:20:58;1.88;;;1.10;;
75216;SDS011;63800;51.972;5.682;2024-03-29T04:23:24;1.38;;;1.00;;
75216;SDS011;63800;51.972;5.682;2024-03-29T04:25:53;1.13;;;0.85;;
75216;SDS011;63800;51.972;5.682;2024-03-29T04:28:19;1.45;;;1.15;;
75216;SDS011;63800;51.972;5.682;2024-03-29T04:30:51;2.30;;;0.98;;
75216;SDS011;63800;51.972;5.682;2024-03-29T04:33:18;3.25;;;0.80;;
75216;SDS011;63800;51.972;5.682;2024-03-29T04:35:53;0.90;;;0.90;;
75216;SDS011;63800;51.972;5.682;2024-03-29T04:38:20;0.80;;;0.80;;
75216;SDS011;63800;51.972;5.682;2024-03-29T04:40:46;2.83;;;0.80;;
75216;SDS011;63800;51.972;5.682;2024-03-29T04:43:12;1.13;;;1.02;;
75216;SDS011;63800;51.972;5.682;2024-03-29T04:45:38;1.27;;;1.00;;
75216;SDS011;63800;51.972;5.682;2024-03-29T04:48:03;1.17;;;0.90;;
75216;SDS011;63800;51.972;5.682;2024-03-29T04:50:29;2.22;;;1.00;;
75216;SDS011;63800;51.972;5.682;2024-03-29T04:52:54;4.25;;;0.93;;
75216;SDS011;63800;51.972;5.682;2024-03-29T04:55:20;3.33;;;0.88;;
75216;SDS011;63800;51.972;5.682;2024-03-29T04:57:45;1.70;;;0.80;;
75216;SDS011;63800;51.972;5.682;2024-03-29T05:00:11;1.25;;;0.80;;
75216;SDS011;63800;51.972;5.682;2024-03-29T05:02:36;2.28;;;0.90;;
75216;SDS011;63800;51.972;5.682;2024-03-29T05:05:02;3.17;;;0.90;;
75216;SDS011;63800;51.972;5.682;2024-03-29T05:07:28;2.63;;;0.95;;
75216;SDS011;63800;51.972;5.682;2024-03-29T05:09:53;1.35;;;0.90;;
75216;SDS011;63800;51.972;5.682;2024-03-29T05:12:20;2.35;;;1.00;;
75216;SDS011;63800;51.972;5.682;2024-03-29T05:14:46;1.58;;;1.10;;
75216;SDS011;63800;51.972;5.682;2024-03-29T05:17:14;2.05;;;1.15;;
75216;SDS011;63800;51.972;5.682;2024-03-29T05:19:40;4.18;;;1.02;;
75216;SDS011;63800;51.972;5.682;2024-03-29T05:22:05;1.92;;;0.90;;
75216;SDS011;63800;51.972;5.682;2024-03-29T05:24:31;2.10;;;1.05;;
75216;SDS011;63800;51.972;5.682;2024-03-29T05:26:56;2.13;;;1.30;;
75216;SDS011;63800;51.972;5.682;2024-03-29T05:29:22;2.45;;;1.33;;
75216;SDS011;63800;51.972;5.682;2024-03-29T05:31:48;1.95;;;1.20;;
75216;SDS011;63800;51.972;5.682;2024-03-29T05:34:13;3.47;;;0.93;;
75216;SDS011;63800;51.972;5.682;2024-03-29T05:36:39;2.20;;;1.50;;
75216;SDS011;63800;51.972;5.682;2024-03-29T05:39:05;2.13;;;1.05;;
75216;SDS011;63800;51.972;5.682;2024-03-29T05:41:30;1.58;;;1.00;;
75216;SDS011;63800;51.972;5.682;2024-03-29T05:43:57;2.08;;;1.15;;
75216;SDS011;63800;51.972;5.682;2024-03-29T05:46:22;2.00;;;1.00;;
75216;SDS011;63800;51.972;5.682;2024-03-29T05:48:48;2.38;;;1.20;;
75216;SDS011;63800;51.972;5.682;2024-03-29T05:51:13;1.90;;;1.13;;
75216;SDS011;63800;51.972;5.682;2024-03-29T05:53:39;1.40;;;1.30;;
75216;SDS011;63800;51.972;5.682;2024-03-29T05:56:05;1.52;;;1.17;;
75216;SDS011;63800;51.972;5.682;2024-03-29T05:58:31;2.35;;;1.00;;
75216;SDS011;63800;51.972;5.682;2024-03-29T06:00:58;2.75;;;1.20;;
75216;SDS011;63800;51.972;5.682;2024-03-29T06:03:23;2.15;;;1.17;;
75216;SDS011;63800;51.972;5.682;2024-03-29T06:05:49;3.03;;;1.20;;
75216;SDS011;63800;51.972;5.682;2024-03-29T06:08:14;1.25;;;1.10;;
75216;SDS011;63800;51.972;5.682;2024-03-29T06:10:40;1.40;;;1.00;;
75216;SDS011;63800;51.972;5.682;2024-03-29T06:13:05;1.65;;;1.20;;
75216;SDS011;63800;51.972;5.682;2024-03-29T06:15:42;2.80;;;1.08;;
75216;SDS011;63800;51.972;5.682;2024-03-29T06:18:27;4.72;;;2.03;;
75216;SDS011;63800;51.972;5.682;2024-03-29T06:20:52;1.10;;;1.00;;
75216;SDS011;63800;51.972;5.682;2024-03-29T06:23:17;1.65;;;1.17;;
75216;SDS011;63800;51.972;5.682;2024-03-29T06:25:44;1.38;;;1.20;;
75216;SDS011;63800;51.972;5.682;2024-03-29T06:28:10;3.75;;;1.27;;
75216;SDS011;63800;51.972;5.682;2024-03-29T06:30:36;1.27;;;1.00;;
75216;SDS011;63800;51.972;5.682;2024-03-29T06:33:01;2.63;;;1.50;;
75216;SDS011;63800;51.972;5.682;2024-03-29T06:35:28;1.13;;;0.90;;
75216;SDS011;63800;51.972;5.682;2024-03-29T06:37:54;1.77;;;1.08;;
75216;SDS011;63800;51.972;5.682;2024-03-29T06:40:21;1.88;;;1.10;;
75216;SDS011;63800;51.972;5.682;2024-03-29T06:42:46;1.80;;;1.20;;
75216;SDS011;63800;51.972;5.682;2024-03-29T06:45:11;1.88;;;1.13;;
75216;SDS011;63800;51.972;5.682;2024-03-29T06:47:37;1.50;;;1.17;;
75216;SDS011;63800;51.972;5.682;2024-03-29T06:50:02;5.80;;;1.42;;
75216;SDS011;63800;51.972;5.682;2024-03-29T06:52:28;1.60;;;1.25;;
75216;SDS011;63800;51.972;5.682;2024-03-29T06:54:53;1.95;;;1.30;;
75216;SDS011;63800;51.972;5.682;2024-03-29T06:57:19;3.38;;;1.15;;
75216;SDS011;63800;51.972;5.682;2024-03-29T06:59:48;2.22;;;1.10;;
75216;SDS011;63800;51.972;5.682;2024-03-29T07:02:13;3.67;;;1.10;;
75216;SDS011;63800;51.972;5.682;2024-03-29T07:04:39;1.95;;;1.30;;
75216;SDS011;63800;51.972;5.682;2024-03-29T07:07:04;3.13;;;1.42;;
75216;SDS011;63800;51.972;5.682;2024-03-29T07:09:30;2.35;;;1.17;;
75216;SDS011;63800;51.972;5.682;2024-03-29T07:11:55;2.30;;;1.17;;
75216;SDS011;63800;51.972;5.682;2024-03-29T07:14:21;1.10;;;1.00;;
75216;SDS011;63800;51.972;5.682;2024-03-29T07:16:48;2.90;;;1.20;;
75216;SDS011;63800;51.972;5.682;2024-03-29T07:19:13;2.50;;;1.30;;
75216;SDS011;63800;51.972;5.682;2024-03-29T07:21:41;2.75;;;1.30;;
75216;SDS011;63800;51.972;5.682;2024-03-29T07:24:07;2.67;;;1.17;;
75216;SDS011;63800;51.972;5.682;2024-03-29T07:26:33;2.50;;;1.70;;
75216;SDS011;63800;51.972;5.682;2024-03-29T07:28:59;2.70;;;1.50;;
75216;SDS011;63800;51.972;5.682;2024-03-29T07:31:25;1.75;;;1.48;;
75216;SDS011;63800;51.972;5.682;2024-03-29T07:33:51;3.05;;;1.20;;
75216;SDS011;63800;51.972;5.682;2024-03-29T07:36:16;2.50;;;1.48;;
75216;SDS011;63800;51.972;5.682;2024-03-29T07:38:42;2.17;;;1.23;;
75216;SDS011;63800;51.972;5.682;2024-03-29T07:41:08;1.90;;;1.50;;
75216;SDS011;63800;51.972;5.682;2024-03-29T07:43:41;1.52;;;1.38;;
75216;SDS011;63800;51.972;5.682;2024-03-29T07:46:17;2.05;;;1.23;;
75216;SDS011;63800;51.972;5.682;2024-03-29T07:48:43;2.30;;;1.38;;
75216;SDS011;63800;51.972;5.682;2024-03-29T07:51:08;4.05;;;1.20;;
75216;SDS011;63800;51.972;5.682;2024-03-29T07:53:33;2.53;;;1.30;;
75216;SDS011;63800;51.972;5.682;2024-03-29T07:55:59;1.70;;;1.10;;
75216;SDS011;63800;51.972;5.682;2024-03-29T07:58:25;2.75;;;1.30;;
75216;SDS011;63800;51.972;5.682;2024-03-29T08:00:51;1.52;;;1.42;;
75216;SDS011;63800;51.972;5.682;2024-03-29T08:03:17;1.20;;;1.10;;
75216;SDS011;63800;51.972;5.682;2024-03-29T08:05:42;1.90;;;1.55;;
75216;SDS011;63800;51.972;5.682;2024-03-29T08:08:08;1.98;;;1.40;;
75216;SDS011;63800;51.972;5.682;2024-03-29T08:10:33;4.50;;;1.40;;
75216;SDS011;63800;51.972;5.682;2024-03-29T08:12:59;2.70;;;1.60;;
75216;SDS011;63800;51.972;5.682;2024-03-29T08:15:25;2.55;;;1.33;;
75216;SDS011;63800;51.972;5.682;2024-03-29T08:17:52;3.05;;;1.40;;
75216;SDS011;63800;51.972;5.682;2024-03-29T08:20:18;1.85;;;1.55;;
75216;SDS011;63800;51.972;5.682;2024-03-29T08:22:44;1.73;;;1.55;;
75216;SDS011;63800;51.972;5.682;2024-03-29T08:25:09;1.52;;;1.40;;
75216;SDS011;63800;51.972;5.682;2024-03-29T08:27:35;2.22;;;1.75;;
75216;SDS011;63800;51.972;5.682;2024-03-29T08:30:00;2.10;;;1.40;;
75216;SDS011;63800;51.972;5.682;2024-03-29T08:32:25;2.70;;;1.48;;
75216;SDS011;63800;51.972;5.682;2024-03-29T08:34:51;2.63;;;1.50;;
75216;SDS011;63800;51.972;5.682;2024-03-29T08:37:17;2.25;;;1.42;;
75216;SDS011;63800;51.972;5.682;2024-03-29T08:39:43;2.10;;;1.55;;
75216;SDS011;63800;51.972;5.682;2024-03-29T08:42:08;3.47;;;1.67;;
75216;SDS011;63800;51.972;5.682;2024-03-29T08:44:36;1.55;;;1.42;;
75216;SDS011;63800;51.972;5.682;2024-03-29T08:47:02;2.33;;;1.90;;
75216;SDS011;63800;51.972;5.682;2024-03-29T08:49:28;2.05;;;1.85;;
75216;SDS011;63800;51.972;5.682;2024-03-29T08:51:54;4.50;;;2.00;;
75216;SDS011;63800;51.972;5.682;2024-03-29T08:54:19;2.70;;;1.80;;
75216;SDS011;63800;51.972;5.682;2024-03-29T08:56:45;3.65;;;2.10;;
75216;SDS011;63800;51.972;5.682;2024-03-29T08:59:10;2.92;;;1.98;;
75216;SDS011;63800;51.972;5.682;2024-03-29T09:01:41;2.78;;;1.77;;
75216;SDS011;63800;51.972;5.682;2024-03-29T09:04:07;2.05;;;1.90;;
75216;SDS011;63800;51.972;5.682;2024-03-29T09:06:36;4.03;;;1.88;;
75216;SDS011;63800;51.972;5.682;2024-03-29T09:09:03;2.65;;;1.70;;
75216;SDS011;63800;51.972;5.682;2024-03-29T09:11:32;2.67;;;1.80;;
75216;SDS011;63800;51.972;5.682;2024-03-29T09:13:58;2.30;;;1.92;;
75216;SDS011;63800;51.972;5.682;2024-03-29T09:16:24;4.15;;;2.45;;
75216;SDS011;63800;51.972;5.682;2024-03-29T09:18:50;2.08;;;1.83;;
75216;SDS011;63800;51.972;5.682;2024-03-29T09:21:16;2.78;;;1.90;;
75216;SDS011;63800;51.972;5.682;2024-03-29T09:23:41;1.98;;;1.70;;
75216;SDS011;63800;51.972;5.682;2024-03-29T09:26:07;2.35;;;1.85;;
75216;SDS011;63800;51.972;5.682;2024-03-29T09:28:32;2.20;;;2.00;;
75216;SDS011;63800;51.972;5.682;2024-03-29T09:31:00;1.90;;;1.80;;
75216;SDS011;63800;51.972;5.682;2024-03-29T09:33:26;2.55;;;2.17;;
75216;SDS011;63800;51.972;5.682;2024-03-29T09:35:51;3.95;;;2.28;;
75216;SDS011;63800;51.972;5.682;2024-03-29T09:38:18;2.90;;;1.98;;
75216;SDS011;63800;51.972;5.682;2024-03-29T09:40:44;2.35;;;1.85;;
75216;SDS011;63800;51.972;5.682;2024-03-29T09:43:10;2.58;;;2.10;;
75216;SDS011;63800;51.972;5.682;2024-03-29T09:45:39;2.95;;;1.88;;
75216;SDS011;63800;51.972;5.682;2024-03-29T09:48:05;2.17;;;1.90;;
75216;SDS011;63800;51.972;5.682;2024-03-29T09:50:36;3.38;;;2.13;;
75216;SDS011;63800;51.972;5.682;2024-03-29T09:53:03;2.30;;;1.70;;
75216;SDS011;63800;51.972;5.682;2024-03-29T09:55:30;3.25;;;2.13;;
75216;SDS011;63800;51.972;5.682;2024-03-29T09:57:56;2.63;;;1.70;;
75216;SDS011;63800;51.972;5.682;2024-03-29T10:00:22;2.15;;;1.95;;
75216;SDS011;63800;51.972;5.682;2024-03-29T10:02:49;2.55;;;1.85;;
75216;SDS011;63800;51.972;5.682;2024-03-29T10:05:15;3.05;;;2.05;;
75216;SDS011;63800;51.972;5.682;2024-03-29T10:07:41;3.50;;;2.28;;
75216;SDS011;63800;51.972;5.682;2024-03-29T10:10:09;3.65;;;2.35;;
75216;SDS011;63800;51.972;5.682;2024-03-29T10:12:36;4.38;;;2.08;;
75216;SDS011;63800;51.972;5.682;2024-03-29T10:15:02;2.55;;;2.35;;
75216;SDS011;63800;51.972;5.682;2024-03-29T10:17:46;4.45;;;2.55;;
75216;SDS011;63800;51.972;5.682;2024-03-29T10:20:17;2.50;;;2.05;;
75216;SDS011;63800;51.972;5.682;2024-03-29T10:22:43;2.92;;;2.10;;
75216;SDS011;63800;51.972;5.682;2024-03-29T10:25:10;5.18;;;2.45;;
75216;SDS011;63800;51.972;5.682;2024-03-29T10:27:36;4.20;;;2.30;;
75216;SDS011;63800;51.972;5.682;2024-03-29T10:30:02;3.28;;;2.25;;
75216;SDS011;63800;51.972;5.682;2024-03-29T10:32:29;3.63;;;2.10;;
75216;SDS011;63800;51.972;5.682;2024-03-29T10:34:54;2.75;;;2.20;;
75216;SDS011;63800;51.972;5.682;2024-03-29T10:37:20;4.00;;;2.28;;
75216;SDS011;63800;51.972;5.682;2024-03-29T10:39:54;3.13;;;2.40;;
75216;SDS011;63800;51.972;5.682;2024-03-29T10:42:21;3.78;;;2.63;;
75216;SDS011;63800;51.972;5.682;2024-03-29T10:44:50;3.60;;;2.60;;
75216;SDS011;63800;51.972;5.682;2024-03-29T10:47:19;3.75;;;2.60;;
75216;SDS011;63800;51.972;5.682;2024-03-29T10:49:49;3.05;;;2.20;;
75216;SDS011;63800;51.972;5.682;2024-03-29T10:52:16;3.03;;;2.55;;
75216;SDS011;63800;51.972;5.682;2024-03-29T10:54:43;3.65;;;2.67;;
75216;SDS011;63800;51.972;5.682;2024-03-29T10:57:11;3.25;;;2.22;;
75216;SDS011;63800;51.972;5.682;2024-03-29T10:59:48;3.85;;;2.60;;
75216;SDS011;63800;51.972;5.682;2024-03-29T11:02:46;4.63;;;3.05;;
75216;SDS011;63800;51.972;5.682;2024-03-29T11:07:42;3.95;;;2.90;;
75216;SDS011;63800;51.972;5.682;2024-03-29T11:10:15;3.17;;;2.88;;
75216;SDS011;63800;51.972;5.682;2024-03-29T11:15:28;2.83;;;2.60;;
75216;SDS011;63800;51.972;5.682;2024-03-29T11:17:54;5.22;;;2.97;;
75216;SDS011;63800;51.972;5.682;2024-03-29T11:20:22;4.63;;;2.65;;
75216;SDS011;63800;51.972;5.682;2024-03-29T11:22:55;3.42;;;2.50;;
75216;SDS011;63800;51.972;5.682;2024-03-29T11:25:21;8.63;;;3.28;;
75216;SDS011;63800;51.972;5.682;2024-03-29T11:27:47;3.40;;;2.33;;
75216;SDS011;63800;51.972;5.682;2024-03-29T11:30:16;3.15;;;2.47;;
75216;SDS011;63800;51.972;5.682;2024-03-29T11:32:43;3.85;;;1.98;;
75216;SDS011;63800;51.972;5.682;2024-03-29T11:35:15;3.53;;;2.13;;
75216;SDS011;63800;51.972;5.682;2024-03-29T11:37:41;2.92;;;2.35;;
75216;SDS011;63800;51.972;5.682;2024-03-29T11:40:07;2.50;;;2.20;;
75216;SDS011;63800;51.972;5.682;2024-03-29T11:42:37;3.45;;;1.80;;
75216;SDS011;63800;51.972;5.682;2024-03-29T11:45:08;2.15;;;1.95;;
75216;SDS011;63800;51.972;5.682;2024-03-29T11:47:35;3.45;;;1.90;;
75216;SDS011;63800;51.972;5.682;2024-03-29T11:50:02;4.03;;;2.58;;
75216;SDS011;63800;51.972;5.682;2024-03-29T11:52:28;2.40;;;2.20;;
75216;SDS011;63800;51.972;5.682;2024-03-29T11:54:53;3.88;;;2.17;;
75216;SDS011;63800;51.972;5.682;2024-03-29T11:57:19;2.75;;;2.08;;
75216;SDS011;63800;51.972;5.682;2024-03-29T11:59:44;3.88;;;2.00;;
75216;SDS011;63800;51.972;5.682;2024-03-29T12:02:10;2.10;;;1.90;;
75216;SDS011;63800;51.972;5.682;2024-03-29T12:04:40;3.53;;;2.05;;
75216;SDS011;63800;51.972;5.682;2024-03-29T12:07:06;2.80;;;2.00;;
75216;SDS011;63800;51.972;5.682;2024-03-29T12:09:31;3.10;;;2.20;;
75216;SDS011;63800;51.972;5.682;2024-03-29T12:11:57;5.95;;;2.13;;
75216;SDS011;63800;51.972;5.682;2024-03-29T12:14:24;2.75;;;2.40;;
75216;SDS011;63800;51.972;5.682;2024-03-29T12:16:52;4.07;;;1.83;;
75216;SDS011;63800;51.972;5.682;2024-03-29T12:19:25;3.05;;;1.70;;
75216;SDS011;63800;51.972;5.682;2024-03-29T12:21:52;2.10;;;1.90;;
75216;SDS011;63800;51.972;5.682;2024-03-29T12:24:19;1.88;;;1.67;;
75216;SDS011;63800;51.972;5.682;2024-03-29T12:26:45;2.83;;;1.70;;
75216;SDS011;63800;51.972;5.682;2024-03-29T12:29:13;2.90;;;1.70;;
75216;SDS011;63800;51.972;5.682;2024-03-29T12:31:38;2.03;;;1.70;;
75216;SDS011;63800;51.972;5.682;2024-03-29T12:34:04;2.65;;;1.80;;
75216;SDS011;63800;51.972;5.682;2024-03-29T12:36:32;3.55;;;2.00;;
75216;SDS011;63800;51.972;5.682;2024-03-29T12:38:58;3.95;;;1.73;;
75216;SDS011;63800;51.972;5.682;2024-03-29T12:41:28;3.13;;;1.70;;
75216;SDS011;63800;51.972;5.682;2024-03-29T12:43:57;3.17;;;1.73;;
75216;SDS011;63800;51.972;5.682;2024-03-29T12:46:23;2.53;;;2.13;;
75216;SDS011;63800;51.972;5.682;2024-03-29T12:48:56;1.92;;;1.75;;
75216;SDS011;63800;51.972;5.682;2024-03-29T12:51:23;2.22;;;1.98;;
75216;SDS011;63800;51.972;5.682;2024-03-29T12:53:48;2.08;;;1.80;;
75216;SDS011;63800;51.972;5.682;2024-03-29T12:56:14;2.10;;;1.90;;
75216;SDS011;63800;51.972;5.682;2024-03-29T12:58:39;2.10;;;1.88;;
75216;SDS011;63800;51.972;5.682;2024-03-29T13:01:05;1.75;;;1.65;;
75216;SDS011;63800;51.972;5.682;2024-03-29T13:03:31;3.42;;;1.52;;
75216;SDS011;63800;51.972;5.682;2024-03-29T13:05:57;2.40;;;1.80;;
75216;SDS011;63800;51.972;5.682;2024-03-29T13:08:22;1.88;;;1.15;;
75216;SDS011;63800;51.972;5.682;2024-03-29T13:10:48;3.05;;;1.50;;
75216;SDS011;63800;51.972;5.682;2024-03-29T13:13:13;2.47;;;1.48;;
75216;SDS011;63800;51.972;5.682;2024-03-29T13:15:39;2.40;;;1.70;;
75216;SDS011;63800;51.972;5.682;2024-03-29T13:18:06;1.67;;;1.35;;
75216;SDS011;63800;51.972;5.682;2024-03-29T13:20:33;1.48;;;1.38;;
75216;SDS011;63800;51.972;5.682;2024-03-29T13:23:01;2.42;;;1.30;;
75216;SDS011;63800;51.972;5.682;2024-03-29T13:25:28;1.60;;;1.33;;
75216;SDS011;63800;51.972;5.682;2024-03-29T13:27:53;2.00;;;1.50;;
75216;SDS011;63800;51.972;5.682;2024-03-29T13:30:23;2.38;;;1.40;;
75216;SDS011;63800;51.972;5.682;2024-03-29T13:32:50;1.88;;;1.30;;
75216;SDS011;63800;51.972;5.682;2024-03-29T13:35:16;1.50;;;1.40;;
75216;SDS011;63800;51.972;5.682;2024-03-29T13:37:43;2.15;;;1.50;;
75216;SDS011;63800;51.972;5.682;2024-03-29T13:40:12;1.48;;;1.33;;
75216;SDS011;63800;51.972;5.682;2024-03-29T13:42:38;2.40;;;1.30;;
75216;SDS011;63800;51.972;5.682;2024-03-29T13:45:04;1.67;;;1.27;;
75216;SDS011;63800;51.972;5.682;2024-03-29T13:47:34;1.63;;;1.17;;
75216;SDS011;63800;51.972;5.682;2024-03-29T13:50:05;2.38;;;1.30;;
75216;SDS011;63800;51.972;5.682;2024-03-29T13:52:31;1.70;;;1.25;;
75216;SDS011;63800;51.972;5.682;2024-03-29T13:54:56;2.65;;;1.40;;
75216;SDS011;63800;51.972;5.682;2024-03-29T13:57:23;1.67;;;1.30;;
75216;SDS011;63800;51.972;5.682;2024-03-29T13:59:48;2.00;;;1.20;;
75216;SDS011;63800;51.972;5.682;2024-03-29T14:02:15;1.60;;;1.10;;
75216;SDS011;63800;51.972;5.682;2024-03-29T14:04:42;1.40;;;1.20;;
75216;SDS011;63800;51.972;5.682;2024-03-29T14:07:11;1.23;;;1.13;;
75216;SDS011;63800;51.972;5.682;2024-03-29T14:09:39;2.35;;;1.10;;
75216;SDS011;63800;51.972;5.682;2024-03-29T14:12:05;1.67;;;1.00;;
75216;SDS011;63800;51.972;5.682;2024-03-29T14:14:31;1.25;;;1.13;;
75216;SDS011;63800;51.972;5.682;2024-03-29T14:16:57;2.70;;;1.20;;
75216;SDS011;63800;51.972;5.682;2024-03-29T14:19:22;1.30;;;1.20;;
75216;SDS011;63800;51.972;5.682;2024-03-29T14:21:49;1.30;;;1.10;;
75216;SDS011;63800;51.972;5.682;2024-03-29T14:24:14;2.58;;;1.20;;
75216;SDS011;63800;51.972;5.682;2024-03-29T14:26:40;1.30;;;1.20;;
75216;SDS011;63800;51.972;5.682;2024-03-29T14:29:07;1.33;;;1.23;;
75216;SDS011;63800;51.972;5.682;2024-03-29T14:31:33;2.22;;;1.60;;
75216;SDS011;63800;51.972;5.682;2024-03-29T14:34:00;3.67;;;2.55;;
75216;SDS011;63800;51.972;5.682;2024-03-29T14:36:25;1.90;;;1.65;;
75216;SDS011;63800;51.972;5.682;2024-03-29T14:38:51;2.40;;;1.30;;
75216;SDS011;63800;51.972;5.682;2024-03-29T14:41:17;1.60;;;1.50;;
75216;SDS011;63800;51.972;5.682;2024-03-29T14:43:43;1.70;;;1.60;;
75216;SDS011;63800;51.972;5.682;2024-03-29T14:46:11;1.83;;;1.45;;
75216;SDS011;63800;51.972;5.682;2024-03-29T14:48:37;2.08;;;1.75;;
75216;SDS011;63800;51.972;5.682;2024-03-29T14:51:02;1.52;;;1.42;;